Current | Forecast
Updated: 2:45 PM CEST on April 29, 2017
Observed at Debrecen, Hungary
Temperature 12°C
Humidity 54%
Dew Point 3°C
Wind SW at 4 km/h
Pressure 1016 hPa (Steady)
Conditions Overcast
Visibility 10.0 kilometers
UV 2 out of 16
Clouds Mostly Cloudy (BKN) : 1005 m
Overcast (OVC) : 2529 m
Yesterday's Maximum 23°C
Yesterday's Minimum 13°C approx.
Yesterday's Heating Degree Days 1 approx.
Sunrise5:17 AM CEST
Sunset7:41 PM CEST
Moon Rise7:46 AM CEST
Moon Set11:15 PM CEST
Moon PhaseMoon Phase
Waxing Crescent
Raw METARMETAR LHDC 291245Z 22002KT 9999 BKN033 OVC083 12/03 Q1016 TEMPO -RA


Monday
. High: 64° F.
Tuesday
. High: 71° F.
Wednesday
. High: 78° F.
Thursday
. High: 84° F.
Friday
. High: 68° F.
Saturday
. High: 69° F.
Sunday
. High: 78° F.
Monday
. High: 73° F.

Units: English | Metric

Find the Weather for any City, State or Zipcode, or Country:

U.S. State List | Severe Weather | Tropical Storms | Ski Conditions
United States | Canada | Central America | South America | Asia | Europe | Australia | Africa | Islands

Weather Underground

© Copyright 2017
The Weather Company, LLC